This is the latest recevied weather packets stored in our database for station/object G0AMO. If no packets are shown the sender has not sent any weather packets the latest 10 day(s).
| Time | Temp. | Humidity | Pressure | Rain* | Wind** | Luminosity | Snow |
|---|---|---|---|---|---|---|---|
| 1778209504 | 8.33° C | 88% | 1015.6 hPa | 0 mm | - | 0 W/m² | - |
| 1778205004 | 8.33° C | 88% | 1016.6 hPa | 0 mm | - | 0 W/m² | - |
| 1778204104 | 8.33° C | 88% | 1016.9 hPa | 0 mm | - | 0 W/m² | - |
| 1778203805 | 8.33° C | 88% | 1015.9 hPa | 0 mm | - | 0 W/m² | - |
| 1778202604 | 8.33° C | 87% | 1016.9 hPa | 0 mm | - | 0 W/m² | - |
| 1778202004 | 8.33° C | 87% | 1016.9 hPa | 0 mm | - | 0 W/m² | - |
| 1778199905 | 8.33° C | 87% | 1017.3 hPa | 0 mm | - | 0 W/m² | - |
| 1778199304 | 8.33° C | 87% | 1015.9 hPa | 0 mm | - | 0 W/m² | - |
| 1778197804 | 8.33° C | 86% | 1016.3 hPa | 0 mm | - | 0 W/m² | - |
| 1778196603 | 8.33° C | 85% | 1017.3 hPa | 0 mm | - | 0 W/m² | - |
| 1778196004 | 8.33° C | 86% | 1016.3 hPa | 0 mm | - | 0 W/m² | - |
| 1778194204 | 8.33° C | 85% | 1016.3 hPa | 0 mm | - | 0 W/m² | - |
| 1778192404 | 8.89° C | 82% | 1016.3 hPa | 0 mm | - | 0 W/m² | - |
| 1778192104 | 8.89° C | 81% | 1017.3 hPa | 0 mm | - | 0 W/m² | - |
| 1778189705 | 9.44° C | 77% | 1016.6 hPa | 0 mm | - | 0 W/m² | - |
| 1778187004 | 10° C | 74% | 1017.1 hPa | 0 mm | - | 0 W/m² | - |
| 1778185505 | 10.56° C | 73% | 1016.9 hPa | 0 mm | - | 0 W/m² | - |
| 1778184604 | 10.56° C | 73% | 1015.9 hPa | 0 mm | - | 0 W/m² | - |
| 1778179804 | 13.33° C | 64% | 1015.9 hPa | 0 mm | - | 0 W/m² | - |
| 1778177404 | 13.89° C | 60% | 1014.9 hPa | 0 mm | - | 0 W/m² | - |
| 1778176505 | 14.44° C | 60% | 1015.2 hPa | 0 mm | - | 206 W/m² | - |
| 1778176204 | 14.44° C | 60% | 1014.9 hPa | 0 mm | - | 226 W/m² | - |
| 1778172604 | 17.22° C | 53% | 1015.2 hPa | 0 mm | - | 489 W/m² | - |
| 1778171104 | 16.11° C | 57% | 1015.2 hPa | 0 mm | - | 605 W/m² | - |
| 1778170804 | 16.11° C | 58% | 1015.9 hPa | 0 mm | - | 628 W/m² | - |
* Rain latest hour (hover to see other rain measurements)
** Current wind speed in m/s (hover to see current wind gust speed)